Harmony Of The Seas — C6BX8 — position and weather

sailwx.info

Track history (hours):
 
Tides and Currents Weather Stations Pressure Air Temp Water Temp Dewpoint Dewpoint Depression Visibility Wind Speed Wind Dir Waves Ship Positions

Harmony Of The Seas

Last reported at 2017-Dec-15 00:58 UTC. Time now 2017-Dec-15 09:54 UTC.
Position N 20°42' W 086°53'.

Length 362 m; draft 9.3 m.

Type: Passenger vessel. MMSI: 311000396.

Date/timePositionNaut miles runAvg speedWind from/ knotsBaromVisibWave heightAir tempDewpointWater temp
2017-Dec-15 00:58N 20°42' W 086°53'817.6
2017-Dec-15 00:30N 20°36' W 086°58'7 1.1
2017-Dec-14 18:26N 20°29' W 086°59'0 0.0
2017-Dec-14 17:59N 20°29' W 086°59'0 0.0
2017-Dec-14 17:26N 20°29' W 086°59'0 0.0
2017-Dec-14 16:56N 20°29' W 086°59'0 0.0
2017-Dec-14 16:29N 20°29' W 086°59'0 0.0
2017-Dec-14 15:59N 20°29' W 086°59'0 0.0
2017-Dec-14 14:59N 20°29' W 086°59'0 0.0
2017-Dec-14 14:26N 20°29' W 086°59'0 0.0
2017-Dec-14 13:59N 20°29' W 086°59'0 0.0
2017-Dec-14 13:26N 20°29' W 086°59'0 0.0
2017-Dec-14 12:59N 20°29' W 086°59'0 0.2
2017-Dec-14 12:30N 20°29' W 086°59'3 6.4
2017-Dec-14 12:00N 20°32' W 086°58'613.1
2017-Dec-14 11:31N 20°37' W 086°54'  
2017-Dec-10 04:00N 24°30' W 079°30'4717.9 340 / 271023.510.8 21.0 26.0
2017-Dec-10 01:22N 25°15' W 079°43'617.1
2017-Dec-10 01:00N 25°21' W 079°45'816.9
2017-Dec-10 00:30N 25°30' W 079°47'917.1
2017-Dec-10 00:00N 25°38' W 079°49'816.7
2017-Dec-09 23:30N 25°45' W 079°53'917.0
2017-Dec-09 23:00N 25°54' W 079°56'918.1
2017-Dec-09 22:30N 26°02' W 079°59'714.0
2017-Dec-09 22:00N 26°06' W 080°06'1 2.3
2017-Dec-09 21:28N 26°05' W 080°07'0 0.0
2017-Dec-09 20:58N 26°05' W 080°07'0 0.0
2017-Dec-09 20:28N 26°05' W 080°07'0 0.0
2017-Dec-09 19:55N 26°05' W 080°07'0 0.0
2017-Dec-09 19:25N 26°05' W 080°07'0 0.0
2017-Dec-09 18:55N 26°05' W 080°07'0 0.0
2017-Dec-09 18:25N 26°05' W 080°07'0 0.0
2017-Dec-09 17:58N 26°05' W 080°07'0 0.0
2017-Dec-09 17:28N 26°05' W 080°07'0 0.0
2017-Dec-09 16:58N 26°05' W 080°07'0 0.0
2017-Dec-09 16:28N 26°05' W 080°07'0 0.0
2017-Dec-09 15:58N 26°05' W 080°07'0 0.0
2017-Dec-09 15:28N 26°05' W 080°07'0 0.0
2017-Dec-09 14:58N 26°05' W 080°07'0 0.0
2017-Dec-09 14:28N 26°05' W 080°07'0 0.0
2017-Dec-09 13:58N 26°05' W 080°07'0 0.0
2017-Dec-09 13:28N 26°05' W 080°07'0 0.0
2017-Dec-09 12:58N 26°05' W 080°07'0 0.0
2017-Dec-09 12:28N 26°05' W 080°07'0 0.0
2017-Dec-09 11:58N 26°05' W 080°07'0 0.0
2017-Dec-09 11:28N 26°05' W 080°07'0 0.0
2017-Dec-09 10:58N 26°05' W 080°07'0 1.0
2017-Dec-09 10:30N 26°06' W 080°07'510.6
2017-Dec-09 10:00N 26°06' W 080°01'510.1
2017-Dec-09 09:30N 26°03' W 079°56'714.0
2017-Dec-09 09:00N 25°57' W 079°52'714.5
2017-Dec-09 08:30N 25°50' W 079°51'815.7
2017-Dec-09 08:00N 25°42' W 079°49'815.5
2017-Dec-09 07:30N 25°35' W 079°47'815.6
2017-Dec-09 07:00N 25°27' W 079°44'817.0
2017-Dec-09 06:30N 25°19' W 079°42'4816.4
2017-Dec-09 03:34N 24°32' W 079°29'116.6
2017-Dec-09 03:30N 24°31' W 079°29'816.3
2017-Dec-09 03:00N 24°24' W 079°25'8316.5
2017-Dec-08 22:00N 23°06' W 078°54'34619.2 1016.2
2017-Dec-08 04:00N 20°36' W 073°18'26911.2 1019.2
2017-Dec-07 04:00N 19°24' W 068°42'12621.0 1021.5
2017-Dec-06 22:00N 18°42' W 066°36'105 2.5 1020.3
2017-Dec-05 04:00N 19°24' W 068°18'   1021.4
Track history (hours):
 
Tides and Currents Weather Stations Pressure Air Temp Water Temp Dewpoint Dewpoint Depression Visibility Wind Speed Wind Dir Waves Ship Positions

Harmony Of The Seas

Last reported at 2017-Dec-15 00:58 UTC. Time now 2017-Dec-15 09:54 UTC.
Position N 20°42' W 086°53'.

Length 362 m; draft 9.3 m.

Type: Passenger vessel. MMSI: 311000396.

Date/timePositionNaut miles runAvg speedWind from/ knotsBaromVisibWave heightAir tempDewpointWater temp
2017-Dec-15 00:58N 20°42' W 086°53'817.6
2017-Dec-15 00:30N 20°36' W 086°58'7 1.1
2017-Dec-14 18:26N 20°29' W 086°59'0 0.0
2017-Dec-14 17:59N 20°29' W 086°59'0 0.0
2017-Dec-14 17:26N 20°29' W 086°59'0 0.0
2017-Dec-14 16:56N 20°29' W 086°59'0 0.0
2017-Dec-14 16:29N 20°29' W 086°59'0 0.0
2017-Dec-14 15:59N 20°29' W 086°59'0 0.0
2017-Dec-14 14:59N 20°29' W 086°59'0 0.0
2017-Dec-14 14:26N 20°29' W 086°59'0 0.0
2017-Dec-14 13:59N 20°29' W 086°59'0 0.0
2017-Dec-14 13:26N 20°29' W 086°59'0 0.0
2017-Dec-14 12:59N 20°29' W 086°59'0 0.2
2017-Dec-14 12:30N 20°29' W 086°59'3 6.4
2017-Dec-14 12:00N 20°32' W 086°58'613.1
2017-Dec-14 11:31N 20°37' W 086°54'  
2017-Dec-10 04:00N 24°30' W 079°30'4717.9 340 / 271023.510.8 21.0 26.0
2017-Dec-10 01:22N 25°15' W 079°43'617.1
2017-Dec-10 01:00N 25°21' W 079°45'816.9
2017-Dec-10 00:30N 25°30' W 079°47'917.1
2017-Dec-10 00:00N 25°38' W 079°49'816.7
2017-Dec-09 23:30N 25°45' W 079°53'917.0
2017-Dec-09 23:00N 25°54' W 079°56'918.1
2017-Dec-09 22:30N 26°02' W 079°59'714.0
2017-Dec-09 22:00N 26°06' W 080°06'1 2.3
2017-Dec-09 21:28N 26°05' W 080°07'0 0.0
2017-Dec-09 20:58N 26°05' W 080°07'0 0.0
2017-Dec-09 20:28N 26°05' W 080°07'0 0.0
2017-Dec-09 19:55N 26°05' W 080°07'0 0.0
2017-Dec-09 19:25N 26°05' W 080°07'0 0.0
2017-Dec-09 18:55N 26°05' W 080°07'0 0.0
2017-Dec-09 18:25N 26°05' W 080°07'0 0.0
2017-Dec-09 17:58N 26°05' W 080°07'0 0.0
2017-Dec-09 17:28N 26°05' W 080°07'0 0.0
2017-Dec-09 16:58N 26°05' W 080°07'0 0.0
2017-Dec-09 16:28N 26°05' W 080°07'0 0.0
2017-Dec-09 15:58N 26°05' W 080°07'0 0.0
2017-Dec-09 15:28N 26°05' W 080°07'0 0.0
2017-Dec-09 14:58N 26°05' W 080°07'0 0.0
2017-Dec-09 14:28N 26°05' W 080°07'0 0.0
2017-Dec-09 13:58N 26°05' W 080°07'0 0.0
2017-Dec-09 13:28N 26°05' W 080°07'0 0.0
2017-Dec-09 12:58N 26°05' W 080°07'0 0.0
2017-Dec-09 12:28N 26°05' W 080°07'0 0.0
2017-Dec-09 11:58N 26°05' W 080°07'0 0.0
2017-Dec-09 11:28N 26°05' W 080°07'0 0.0
2017-Dec-09 10:58N 26°05' W 080°07'0 1.0
2017-Dec-09 10:30N 26°06' W 080°07'510.6
2017-Dec-09 10:00N 26°06' W 080°01'510.1
2017-Dec-09 09:30N 26°03' W 079°56'714.0
2017-Dec-09 09:00N 25°57' W 079°52'714.5
2017-Dec-09 08:30N 25°50' W 079°51'815.7
2017-Dec-09 08:00N 25°42' W 079°49'815.5
2017-Dec-09 07:30N 25°35' W 079°47'815.6
2017-Dec-09 07:00N 25°27' W 079°44'817.0
2017-Dec-09 06:30N 25°19' W 079°42'4816.4
2017-Dec-09 03:34N 24°32' W 079°29'116.6
2017-Dec-09 03:30N 24°31' W 079°29'816.3
2017-Dec-09 03:00N 24°24' W 079°25'8316.5
2017-Dec-08 22:00N 23°06' W 078°54'34619.2 1016.2
2017-Dec-08 04:00N 20°36' W 073°18'26911.2 1019.2
2017-Dec-07 04:00N 19°24' W 068°42'12621.0 1021.5
2017-Dec-06 22:00N 18°42' W 066°36'105 2.5 1020.3
2017-Dec-05 04:00N 19°24' W 068°18'   1021.4

Dump ship's entire track history